Time;durP1;ratioP1;P1;durP2;ratioP2;P2;SDS_P1;SDS_P2;PMS_P1;PMS_P2;Temp;Humidity;BMP_temperature;BMP_pressure;BME280_temperature;BME280_humidity;BME280_pressure;Samples;Min_cycle;Max_cycle;Signal;HPM_P1;HPM_P2
2023/06/28 00:02:25;;;;;;;7.70;3.20;;;;;;;15.74;100.00;101767.66;4887128;29;20182;-89
2023/06/28 00:04:52;;;;;;;7.23;3.20;;;;;;;15.72;100.00;101764.41;4896491;29;20507;-89
2023/06/28 00:07:17;;;;;;;5.85;2.90;;;;;;;15.67;100.00;101769.84;4893947;29;20034;-89
2023/06/28 00:09:42;;;;;;;6.27;3.23;;;;;;;15.67;100.00;101767.94;4893549;29;20063;-89
2023/06/28 00:12:08;;;;;;;5.70;3.30;;;;;;;15.68;100.00;101769.56;4910194;29;20029;-89
2023/06/28 00:14:33;;;;;;;4.77;3.40;;;;;;;15.77;100.00;101777.13;4917068;29;20288;-89
2023/06/28 00:16:59;;;;;;;7.90;3.40;;;;;;;15.84;100.00;101772.25;4895807;29;20032;-89
2023/06/28 00:19:26;;;;;;;4.90;3.05;;;;;;;15.84;100.00;101766.84;4916620;29;20035;-89
2023/06/28 00:21:53;;;;;;;7.28;3.38;;;;;;;15.88;100.00;101774.19;4901044;29;20025;-89
2023/06/28 00:24:19;;;;;;;9.75;3.20;;;;;;;15.93;100.00;101778.78;4906214;29;20501;-89
2023/06/28 00:26:44;;;;;;;5.67;3.27;;;;;;;15.90;100.00;101777.41;4911378;29;20056;-89
2023/06/28 00:29:09;;;;;;;8.17;3.30;;;;;;;15.79;100.00;101770.38;4914267;29;20020;-88
2023/06/28 00:31:35;;;;;;;7.20;3.20;;;;;;;15.66;100.00;101776.31;4897254;29;20052;-89
2023/06/28 00:34:00;;;;;;;6.70;3.70;;;;;;;15.57;100.00;101768.72;4900998;29;20448;-88
2023/06/28 00:36:26;;;;;;;5.90;3.07;;;;;;;15.51;100.00;101775.22;4910134;29;20025;-88
2023/06/28 00:38:51;;;;;;;7.53;2.97;;;;;;;15.41;100.00;101770.63;4901239;29;20033;-88
2023/06/28 00:41:16;;;;;;;5.90;2.77;;;;;;;15.55;100.00;101789.00;4898634;29;20036;-89
2023/06/28 00:43:42;;;;;;;5.07;2.80;;;;;;;15.62;100.00;101783.34;4894483;29;20040;-88
2023/06/28 00:46:07;;;;;;;4.17;2.80;;;;;;;15.72;100.00;101783.31;4897773;29;20304;-89
2023/06/28 00:48:33;;;;;;;4.07;2.50;;;;;;;15.80;100.00;101781.97;4898677;29;20040;-89
2023/06/28 00:50:59;;;;;;;6.10;2.95;;;;;;;15.84;100.00;101783.06;4899432;29;20116;-89
2023/06/28 00:53:25;;;;;;;11.77;3.00;;;;;;;15.93;100.00;101769.84;4898553;29;20060;-88
2023/06/28 00:55:51;;;;;;;5.40;2.78;;;;;;;16.03;100.00;101776.06;4909737;29;20136;-89
2023/06/28 00:58:17;;;;;;;6.93;2.22;;;;;;;16.08;100.00;101772.53;4898000;29;20044;-89
2023/06/28 01:00:45;;;;;;;6.05;2.42;;;;;;;16.07;100.00;101775.53;4869626;29;20029;-90
2023/06/28 01:03:10;;;;;;;5.47;2.10;;;;;;;16.07;100.00;101773.63;4892329;29;20043;-89
2023/06/28 01:05:35;;;;;;;7.50;2.87;;;;;;;16.07;100.00;101781.72;4898525;29;20032;-89
2023/06/28 01:08:04;;;;;;;4.80;2.50;;;;;;;16.08;100.00;101777.16;4899282;29;20035;-89
2023/06/28 01:10:29;;;;;;;5.63;2.67;;;;;;;16.09;100.00;101781.47;4882289;29;20025;-89
2023/06/28 01:12:55;;;;;;;6.50;2.78;;;;;;;16.18;100.00;101783.34;4897991;29;20485;-89
2023/06/28 01:15:22;;;;;;;5.90;2.23;;;;;;;16.18;100.00;101783.34;4893507;29;20036;-89
2023/06/28 01:17:47;;;;;;;5.10;2.40;;;;;;;16.10;100.00;101781.19;4887065;29;20029;-89
2023/06/28 01:20:13;;;;;;;5.57;2.37;;;;;;;16.14;100.00;101776.06;4880242;29;20398;-89
2023/06/28 01:22:43;;;;;;;4.27;2.10;;;;;;;16.18;100.00;101780.66;4879656;29;20297;-89
2023/06/28 01:25:10;;;;;;;6.47;2.20;;;;;;;16.16;100.00;101763.88;4879823;29;20032;-89
2023/06/28 01:27:37;;;;;;;7.95;2.45;;;;;;;16.10;100.00;101775.00;4894118;29;20036;-89
2023/06/28 01:30:03;;;;;;;5.83;2.13;;;;;;;16.13;100.00;101772.53;4893949;29;20073;-88
2023/06/28 01:32:28;;;;;;;3.63;2.20;;;;;;;16.16;100.00;101768.47;4892176;29;20684;-89
2023/06/28 01:34:54;;;;;;;7.15;2.25;;;;;;;16.11;100.00;101766.59;4897518;29;20036;-89
2023/06/28 01:37:20;;;;;;;5.47;2.10;;;;;;;16.14;100.00;101760.66;4896747;29;20067;-89
2023/06/28 01:39:46;;;;;;;8.88;2.30;;;;;;;16.16;100.00;101769.31;4885584;29;20040;-89
2023/06/28 01:42:12;;;;;;;7.53;2.70;;;;;;;16.11;100.00;101755.78;4892083;29;20028;-89
2023/06/28 01:52:24;;;;;;;4.93;2.30;;;;;;;16.07;100.00;101765.50;5377751;23;20059;-90
2023/06/28 01:54:49;;;;;;;6.87;2.20;;;;;;;16.10;100.00;101772.28;4920517;29;20028;-89
2023/06/28 01:57:15;;;;;;;4.47;2.40;;;;;;;16.14;100.00;101773.38;4907019;29;20052;-89
2023/06/28 01:59:41;;;;;;;6.18;2.20;;;;;;;16.14;100.00;101763.34;4923547;29;20024;-88
2023/06/28 02:02:06;;;;;;;7.70;2.50;;;;;;;16.05;100.00;101763.09;4920214;29;20035;-90
2023/06/28 02:04:32;;;;;;;5.77;2.50;;;;;;;16.06;100.00;101758.50;4917786;29;20031;-88
2023/06/28 02:06:57;;;;;;;4.85;2.33;;;;;;;16.00;100.00;101763.09;4926891;29;20024;-89
2023/06/28 02:09:22;;;;;;;5.73;2.30;;;;;;;15.93;100.00;101764.44;4920830;29;20023;-89
2023/06/28 02:11:48;;;;;;;7.40;2.47;;;;;;;15.83;100.00;101755.25;4917349;29;20163;-89
2023/06/28 02:14:13;;;;;;;5.13;2.20;;;;;;;15.73;100.00;101750.66;4914211;29;20495;-89
2023/06/28 02:16:41;;;;;;;4.47;1.80;;;;;;;15.75;100.00;101762.00;4917473;29;20031;-89
2023/06/28 02:19:06;;;;;;;6.33;2.07;;;;;;;15.78;100.00;101755.25;4917154;29;20064;-89
2023/06/28 02:21:32;;;;;;;4.67;2.13;;;;;;;15.80;100.00;101749.56;4916665;29;20812;-89
2023/06/28 02:23:57;;;;;;;4.10;1.90;;;;;;;15.83;100.00;101741.72;4915506;29;20587;-89
2023/06/28 02:26:22;;;;;;;6.63;2.25;;;;;;;15.86;100.00;101746.63;4915149;29;20040;-89
2023/06/28 02:28:48;;;;;;;4.80;2.00;;;;;;;15.83;100.00;101746.31;4916888;29;20072;-89
2023/06/28 02:31:16;;;;;;;3.63;2.20;;;;;;;15.80;100.00;101742.28;4916334;29;20035;-88
2023/06/28 02:33:41;;;;;;;7.27;2.43;;;;;;;15.74;100.00;101738.78;4918980;29;20380;-96
2023/06/28 02:36:07;;;;;;;5.80;2.25;;;;;;;15.65;100.00;101747.69;4918077;29;20055;-93
2023/06/28 02:38:38;;;;;;;8.23;2.43;;;;;;;15.52;100.00;101749.00;4920227;29;20059;-95
2023/06/28 02:41:05;;;;;;;5.80;2.13;;;;;;;15.37;100.00;101736.28;4901208;29;20522;-96
2023/06/28 02:43:30;;;;;;;5.15;2.20;;;;;;;15.20;100.00;101737.34;4916119;29;20039;-96
2023/06/28 02:45:55;;;;;;;7.50;2.30;;;;;;;15.13;100.00;101734.91;4921010;29;20029;-96
2023/06/28 02:48:21;;;;;;;9.17;2.57;;;;;;;15.02;100.00;101741.38;4915797;29;20021;-91
2023/06/28 02:50:46;;;;;;;6.53;2.87;;;;;;;14.90;100.00;101738.91;4917101;29;20577;-89
2023/06/28 02:53:11;;;;;;;8.23;2.72;;;;;;;14.84;100.00;101745.34;4922765;29;20024;-89
2023/06/28 02:55:36;;;;;;;7.70;3.17;;;;;;;14.74;100.00;101734.53;4928187;29;20029;-89
2023/06/28 02:58:02;;;;;;;9.87;3.30;;;;;;;14.73;100.00;101743.69;4930325;29;20042;-88
2023/06/28 03:00:27;;;;;;;6.27;3.03;;;;;;;14.73;100.00;101743.69;4917498;29;20579;-88
2023/06/28 03:02:52;;;;;;;6.20;2.83;;;;;;;14.71;100.00;101745.84;4914689;29;20086;-88
2023/06/28 03:05:18;;;;;;;7.00;3.20;;;;;;;14.51;100.00;101725.75;4914074;29;20039;-88
2023/06/28 03:07:43;;;;;;;6.13;2.70;;;;;;;14.60;100.00;101740.38;4911317;29;20107;-88
2023/06/28 03:10:09;;;;;;;8.33;2.63;;;;;;;14.59;100.00;101740.63;4912396;29;20776;-89
2023/06/28 03:12:34;;;;;;;8.30;2.83;;;;;;;14.65;100.00;101744.97;4907507;29;20052;-88
2023/06/28 03:14:59;;;;;;;9.10;2.63;;;;;;;14.65;100.00;101739.59;4889157;29;20112;-89
2023/06/28 03:17:25;;;;;;;7.67;2.57;;;;;;;14.66;100.00;101739.31;4911690;29;20032;-89
2023/06/28 03:19:50;;;;;;;6.17;2.80;;;;;;;14.68;100.00;101737.19;4914687;29;20032;-89
2023/06/28 03:22:15;;;;;;;5.50;2.70;;;;;;;14.69;100.00;101736.13;4915351;29;20529;-86
2023/06/28 03:24:41;;;;;;;5.53;2.33;;;;;;;14.72;100.00;101731.28;4913502;29;20500;-86
2023/06/28 03:27:07;;;;;;;6.15;2.42;;;;;;;14.74;100.00;101737.22;4914996;29;20207;-88
2023/06/28 03:29:33;;;;;;;7.07;2.30;;;;;;;14.76;100.00;101732.38;4908004;29;20025;-90
2023/06/28 03:31:58;;;;;;;7.43;2.38;;;;;;;14.81;100.00;101732.38;4905252;29;20032;-87
2023/06/28 03:34:24;;;;;;;4.87;2.60;;;;;;;14.79;100.00;101734.56;4912569;29;20044;-86
2023/06/28 03:36:50;;;;;;;11.83;3.10;;;;;;;14.79;100.00;101743.44;4913001;29;20036;-86
2023/06/28 03:39:15;;;;;;;4.53;2.40;;;;;;;14.74;100.00;101731.81;4894891;29;20084;-86
2023/06/28 03:41:40;;;;;;;9.60;2.80;;;;;;;14.65;100.00;101726.09;4914337;29;20032;-87
2023/06/28 03:46:41;;;;;;;9.60;2.80;;;;;;;14.45;100.00;101697.13;5131856;23;20059;-88
2023/06/28 03:49:12;;;;;;;10.38;2.88;;;;;;;14.44;100.00;101701.72;4913555;29;20032;-88
2023/06/28 03:51:38;;;;;;;6.00;2.47;;;;;;;14.64;100.00;101722.56;4913039;29;20398;-89
2023/06/28 03:54:06;;;;;;;7.07;2.83;;;;;;;14.67;100.00;101727.44;4907391;29;20296;-94
2023/06/28 03:56:31;;;;;;;7.95;2.75;;;;;;;14.67;100.00;101715.84;4918825;29;20023;-93
2023/06/28 03:58:57;;;;;;;5.67;2.57;;;;;;;14.64;100.00;101716.38;4914010;29;20032;-94
2023/06/28 04:01:22;;;;;;;5.80;3.20;;;;;;;14.72;100.00;101725.88;4928912;29;20050;-93
2023/06/28 04:03:47;;;;;;;7.50;3.20;;;;;;;14.77;100.00;101729.41;4909007;29;20028;-94
2023/06/28 04:06:13;;;;;;;9.70;3.10;;;;;;;14.84;100.00;101729.97;4893200;29;20087;-89
2023/06/28 04:08:38;;;;;;;7.45;2.92;;;;;;;14.93;100.00;101737.53;4909859;29;20068;-88
2023/06/28 04:11:03;;;;;;;8.87;3.40;;;;;;;14.91;100.00;101724.34;4933443;29;20019;-88
2023/06/28 04:13:29;;;;;;;10.30;3.63;;;;;;;14.92;100.00;101725.97;4927213;29;20424;-89
2023/06/28 04:15:55;;;;;;;7.57;3.60;;;;;;;14.98;100.00;101721.38;4913116;29;20039;-89
2023/06/28 04:18:20;;;;;;;6.30;3.03;;;;;;;15.04;100.00;101722.19;4914497;29;20543;-89
2023/06/28 04:20:45;;;;;;;7.93;3.90;;;;;;;15.06;100.00;101720.03;4910529;29;20024;-89
2023/06/28 04:23:11;;;;;;;9.10;3.37;;;;;;;15.11;100.00;101728.16;4917582;29;20114;-90
2023/06/28 04:25:37;;;;;;;8.88;4.03;;;;;;;15.12;100.00;101724.38;4921701;29;20039;-89
2023/06/28 04:28:03;;;;;;;13.23;4.20;;;;;;;15.13;100.00;101726.00;4914380;29;20026;-89
2023/06/28 04:30:29;;;;;;;8.20;3.88;;;;;;;15.10;100.00;101718.44;4894239;29;20029;-89
2023/06/28 04:32:54;;;;;;;8.43;3.97;;;;;;;15.08;100.00;101718.69;4912389;29;20036;-89
2023/06/28 04:35:21;;;;;;;8.23;4.17;;;;;;;15.09;100.00;101724.91;4914064;29;20055;-89
2023/06/28 04:37:50;;;;;;;7.57;3.83;;;;;;;15.12;100.00;101719.00;4914183;29;20413;-90
2023/06/28 04:40:16;;;;;;;11.03;3.93;;;;;;;15.08;100.00;101723.28;4896535;29;20111;-89
2023/06/28 04:42:41;;;;;;;10.90;4.00;;;;;;;15.12;100.00;101722.50;4915771;29;20376;-90
2023/06/28 04:45:09;;;;;;;10.37;4.20;;;;;;;15.11;100.00;101720.88;4918297;29;20087;-89
2023/06/28 04:47:35;;;;;;;10.13;3.90;;;;;;;15.13;100.00;101718.72;4917922;29;20124;-89
2023/06/28 04:50:02;;;;;;;9.77;3.97;;;;;;;15.15;100.00;101718.47;4917126;29;20047;-89
2023/06/28 04:52:28;;;;;;;9.30;4.40;;;;;;;15.17;100.00;101726.28;4918358;29;20024;-90
2023/06/28 04:54:53;;;;;;;10.93;4.20;;;;;;;15.24;100.00;101721.44;4917487;29;20055;-88
2023/06/28 04:57:20;;;;;;;9.48;4.15;;;;;;;15.31;100.00;101721.19;4916952;29;20024;-89
2023/06/28 04:59:46;;;;;;;10.13;4.50;;;;;;;15.33;100.00;101730.63;4918144;29;20511;-89
2023/06/28 05:02:11;;;;;;;11.33;4.73;;;;;;;15.36;100.00;101734.66;4916388;29;20307;-89
2023/06/28 05:04:37;;;;;;;10.23;4.87;;;;;;;15.42;100.00;101733.59;4909604;29;20035;-89
2023/06/28 05:07:06;;;;;;;10.18;4.32;;;;;;;15.36;100.00;101718.47;4930700;29;20319;-89
2023/06/28 05:09:33;;;;;;;9.85;4.30;;;;;;;15.43;100.00;101736.03;4921594;29;20024;-89
2023/06/28 05:11:59;;;;;;;10.63;4.03;;;;;;;15.48;100.00;101729.03;4918166;29;20064;-89
2023/06/28 05:14:25;;;;;;;10.95;4.50;;;;;;;15.56;100.00;101729.28;4917532;29;20031;-89
2023/06/28 05:16:51;;;;;;;7.53;4.03;;;;;;;15.62;100.00;101724.69;4916830;29;20036;-90
2023/06/28 05:19:17;;;;;;;7.55;4.05;;;;;;;15.67;100.00;101727.41;4918035;29;20464;-89
2023/06/28 05:21:42;;;;;;;7.65;4.43;;;;;;;15.69;100.00;101719.84;4917692;29;20021;-88
2023/06/28 05:24:07;;;;;;;11.23;5.20;;;;;;;15.73;100.00;101722.81;4915085;29;20032;-90
2023/06/28 05:26:33;;;;;;;9.07;4.27;;;;;;;15.69;100.00;101719.06;4913229;29;20028;-89
2023/06/28 05:28:58;;;;;;;9.88;4.43;;;;;;;15.72;100.00;101719.31;4911289;29;20020;-90
2023/06/28 05:31:24;;;;;;;9.83;4.97;;;;;;;15.77;100.00;101720.41;4894426;29;20056;-95
2023/06/28 05:33:49;;;;;;;6.97;4.30;;;;;;;15.82;100.00;101729.31;4888683;29;20476;-89
2023/06/28 05:36:15;;;;;;;10.63;4.90;;;;;;;15.78;100.00;101724.72;4921426;29;20028;-89
2023/06/28 05:38:40;;;;;;;8.27;5.00;;;;;;;15.73;100.00;101718.22;4928923;29;20028;-91
2023/06/28 05:41:13;;;;;;;9.63;4.80;;;;;;;15.77;100.00;101732.00;4917211;29;20016;-87
2023/06/28 05:43:38;;;;;;;9.98;4.43;;;;;;;15.78;100.00;101725.50;5037110;23;20057;-87
2023/06/28 05:46:04;;;;;;;10.53;4.90;;;;;;;15.79;100.00;101724.44;4910252;29;20577;-89
2023/06/28 05:48:30;;;;;;;9.83;5.10;;;;;;;15.84;100.00;101723.63;4901748;29;20032;-87
2023/06/28 05:50:56;;;;;;;9.75;5.30;;;;;;;15.86;100.00;101716.09;4893841;29;20036;-88
2023/06/28 05:53:21;;;;;;;11.87;5.20;;;;;;;15.90;100.00;101715.25;4904207;29;20469;-88
2023/06/28 05:55:47;;;;;;;13.35;4.88;;;;;;;15.94;100.00;101707.44;4896157;29;20610;-90
2023/06/28 05:58:12;;;;;;;9.73;4.40;;;;;;;16.00;100.00;101710.94;4898060;29;20036;-88
2023/06/28 06:00:37;;;;;;;10.37;5.00;;;;;;;16.07;100.00;101711.44;4905495;29;20493;-89
2023/06/28 06:03:43;;;;;;;11.27;5.20;;;;;;;16.09;100.00;101713.91;5170927;23;21288;-89
2023/06/28 06:06:09;;;;;;;8.50;5.30;;;;;;;15.99;100.00;101698.50;4926725;29;20040;-90
2023/06/28 06:08:35;;;;;;;9.93;5.18;;;;;;;16.11;100.00;101707.13;4922412;29;20092;-89
2023/06/28 06:11:01;;;;;;;10.13;4.77;;;;;;;16.24;100.00;101704.94;4918480;29;20031;-89
2023/06/28 06:13:27;;;;;;;7.25;4.80;;;;;;;16.41;100.00;101710.84;4912293;29;20028;-89
2023/06/28 06:15:52;;;;;;;11.93;5.13;;;;;;;16.56;100.00;101703.75;4916478;29;20318;-89
2023/06/28 06:18:18;;;;;;;11.13;5.83;;;;;;;16.61;100.00;101706.44;4916984;29;20315;-92
2023/06/28 06:20:43;;;;;;;9.23;5.03;;;;;;;16.64;100.00;101719.38;4914258;29;20028;-91
2023/06/28 06:23:09;;;;;;;16.13;5.60;;;;;;;16.39;100.00;101685.13;4937537;23;20056;-90
2023/06/28 06:25:34;;;;;;;9.23;5.10;;;;;;;16.40;100.00;101692.16;4902609;29;20800;-90
2023/06/28 06:28:15;;;;;;;10.93;5.87;;;;;;;16.53;100.00;101707.00;4908703;29;20034;-90
2023/06/28 06:31:13;;;;;;;10.70;5.43;;;;;;;16.57;100.00;101718.91;4904662;29;20033;-90
2023/06/28 06:36:36;;;;;;;13.45;6.03;;;;;;;16.62;100.00;101710.75;5361220;23;20056;-86
2023/06/28 06:42:35;;;;;;;12.25;5.40;;;;;;;16.53;100.00;101704.28;4849254;29;20590;-86
2023/06/28 06:45:00;;;;;;;11.80;5.20;;;;;;;16.61;100.00;101711.84;4842330;29;20049;-85
2023/06/28 06:47:25;;;;;;;11.33;6.00;;;;;;;16.60;100.00;101715.66;4903394;29;20035;-86
2023/06/28 06:49:51;;;;;;;13.23;5.73;;;;;;;16.49;100.00;101710.25;4913068;29;20246;-86
2023/06/28 06:52:21;;;;;;;9.90;5.53;;;;;;;16.60;100.00;101716.44;4914100;29;20024;-84
2023/06/28 06:54:47;;;;;;;13.47;5.83;;;;;;;16.53;100.00;101707.78;4911826;29;20307;-84
2023/06/28 06:57:14;;;;;;;8.90;5.13;;;;;;;16.69;100.00;101726.69;4905398;29;20032;-84
2023/06/28 06:59:40;;;;;;;13.87;5.73;;;;;;;16.75;100.00;101720.16;4906020;29;20043;-84
2023/06/28 07:02:07;;;;;;;8.03;5.37;;;;;;;16.78;100.00;101720.44;4910468;29;20285;-84
2023/06/28 07:04:33;;;;;;;8.80;5.68;;;;;;;16.71;100.00;101728.03;4908029;29;20555;-84
2023/06/28 07:06:58;;;;;;;10.83;5.87;;;;;;;16.74;100.00;101732.06;4901140;29;20052;-84
2023/06/28 07:09:26;;;;;;;11.20;6.17;;;;;;;16.79;100.00;101732.88;4913380;29;20158;-83
2023/06/28 07:11:51;;;;;;;9.98;5.60;;;;;;;16.77;100.00;101724.22;4912664;29;20032;-84
2023/06/28 07:14:17;;;;;;;9.80;4.78;;;;;;;16.86;100.00;101731.75;4904189;29;20032;-84
2023/06/28 07:16:45;;;;;;;8.80;5.37;;;;;;;16.90;100.00;101735.53;4912662;29;20794;-83
2023/06/28 07:19:11;;;;;;;11.25;5.70;;;;;;;16.91;100.00;101735.22;4912742;29;20503;-84
2023/06/28 07:21:36;;;;;;;11.65;5.85;;;;;;;16.83;100.00;101733.13;4914112;29;20032;-84
2023/06/28 07:24:02;;;;;;;10.13;5.53;;;;;;;16.85;100.00;101738.25;4914402;29;20046;-84
2023/06/28 07:26:28;;;;;;;10.43;5.77;;;;;;;16.92;100.00;101744.19;4913266;29;20028;-85
2023/06/28 07:28:54;;;;;;;11.57;5.50;;;;;;;16.98;100.00;101740.38;4908825;29;20032;-85
2023/06/28 07:31:20;;;;;;;13.57;5.87;;;;;;;16.96;100.00;101737.16;4908845;29;20669;-85
2023/06/28 07:33:45;;;;;;;13.10;5.63;;;;;;;17.01;100.00;101747.13;4914168;29;20371;-86
2023/06/28 07:36:10;;;;;;;11.57;5.83;;;;;;;16.97;100.00;101738.78;4913370;29;20034;-85
2023/06/28 07:38:36;;;;;;;10.20;5.80;;;;;;;17.01;100.00;101733.59;4913709;29;20047;-84
2023/06/28 07:41:02;;;;;;;9.03;5.33;;;;;;;17.23;100.00;101744.03;4911258;29;20036;-84
2023/06/28 07:43:27;;;;;;;10.10;5.43;;;;;;;17.36;100.00;101734.47;4913114;29;20032;-84
2023/06/28 07:45:53;;;;;;;7.67;4.90;;;;;;;17.58;100.00;101738.66;4891254;29;20440;-84
2023/06/28 07:48:19;;;;;;;10.87;5.17;;;;;;;17.79;100.00;101733.84;4909068;29;20731;-84
2023/06/28 07:50:45;;;;;;;10.02;6.13;;;;;;;17.98;100.00;101734.00;4909951;29;20031;-84
2023/06/28 07:53:14;;;;;;;10.60;5.47;;;;;;;18.20;100.00;101733.50;4912303;29;20032;-85
2023/06/28 07:55:39;;;;;;;12.05;5.20;;;;;;;18.39;100.00;101741.69;4914258;29;20106;-85
2023/06/28 07:58:05;;;;;;;10.67;5.50;;;;;;;18.45;100.00;101742.44;4910725;29;20115;-86
2023/06/28 08:00:32;;;;;;;9.90;4.60;;;;;;;18.54;100.00;101729.03;4912961;29;20461;-88
2023/06/28 08:02:58;;;;;;;12.95;4.78;;;;;;;18.57;100.00;101734.72;5330283;23;20019;-89
2023/06/28 08:05:24;;;;;;;11.25;4.30;;;;;;;18.54;100.00;101743.44;4906571;29;20044;-87
2023/06/28 08:07:53;;;;;;;6.30;3.63;;;;;;;18.52;100.00;101740.19;4914552;29;20432;-89
2023/06/28 08:10:18;;;;;;;11.93;4.20;;;;;;;18.50;100.00;101739.66;4912605;29;20648;-88
2023/06/28 08:12:44;;;;;;;8.73;3.95;;;;;;;18.49;100.00;101743.47;4903627;29;20025;-86
2023/06/28 08:15:09;;;;;;;8.83;4.37;;;;;;;18.46;100.00;101744.06;4906767;29;20382;-87
2023/06/28 08:17:35;;;;;;;12.07;4.47;;;;;;;18.47;100.00;101742.94;4895932;29;20025;-86
2023/06/28 08:20:02;;;;;;;8.52;3.65;;;;;;;18.50;100.00;101733.44;4897239;29;20060;-87
2023/06/28 08:22:27;;;;;;;10.57;4.60;;;;;;;18.46;100.00;101744.88;4896462;29;20048;-87
2023/06/28 08:24:52;;;;;;;8.15;4.20;;;;;;;18.52;99.67;101734.75;4889654;29;20336;-86
2023/06/28 08:27:19;;;;;;;10.40;4.40;;;;;;;18.60;98.70;101736.03;4897668;29;20025;-86
2023/06/28 08:29:44;;;;;;;10.07;4.57;;;;;;;18.56;98.59;101730.38;4898532;29;20032;-86
2023/06/28 08:32:10;;;;;;;9.67;4.10;;;;;;;18.65;96.58;101735.16;4904982;29;20138;-88
2023/06/28 08:34:35;;;;;;;7.47;3.80;;;;;;;18.60;97.18;101728.72;4903914;29;20072;-88
2023/06/28 08:37:01;;;;;;;9.20;4.63;;;;;;;18.64;97.63;101728.09;4905827;29;20039;-89
2023/06/28 08:39:26;;;;;;;8.87;3.83;;;;;;;18.70;96.93;101744.06;4907218;29;20039;-90
2023/06/28 08:41:52;;;;;;;7.43;4.27;;;;;;;18.88;95.92;101742.44;4899630;29;20052;-89
2023/06/28 08:44:20;;;;;;;9.75;4.30;;;;;;;19.11;96.42;101745.44;4912048;29;20032;-89
2023/06/28 08:46:48;;;;;;;8.93;3.60;;;;;;;19.42;95.10;101744.97;4907471;29;20025;-89
2023/06/28 08:49:14;;;;;;;9.98;3.80;;;;;;;19.70;90.99;101746.97;4914802;29;20033;-89
2023/06/28 08:51:40;;;;;;;9.37;3.47;;;;;;;19.84;91.32;101755.97;4894438;29;20584;-88
2023/06/28 08:54:07;;;;;;;6.70;3.57;;;;;;;19.99;90.66;101746.78;4893798;29;20360;-90
2023/06/28 08:56:32;;;;;;;9.57;4.00;;;;;;;20.18;90.48;101743.19;4895655;29;20029;-89
2023/06/28 08:58:58;;;;;;;7.40;3.42;;;;;;;20.11;87.39;101744.38;4895291;29;20025;-87
2023/06/28 09:01:24;;;;;;;10.20;4.40;;;;;;;20.11;85.03;101747.09;4896141;29;20076;-90
2023/06/28 09:03:50;;;;;;;9.40;3.85;;;;;;;20.14;86.39;101745.72;4896026;29;20028;-87
2023/06/28 09:06:16;;;;;;;10.37;3.73;;;;;;;20.24;86.37;101736.53;4878425;29;20036;-87
2023/06/28 09:08:43;;;;;;;11.83;4.10;;;;;;;20.41;84.99;101744.91;4892412;29;20305;-87
2023/06/28 09:11:10;;;;;;;10.05;3.50;;;;;;;20.47;85.30;101736.63;4910145;29;20039;-87
2023/06/28 09:13:37;;;;;;;5.88;3.40;;;;;;;20.67;83.89;101733.47;4916380;29;20020;-88
2023/06/28 09:16:05;;;;;;;6.40;3.72;;;;;;;20.87;84.10;101726.00;4906486;29;20092;-88
2023/06/28 09:18:30;;;;;;;11.38;3.70;;;;;;;21.11;81.51;101733.13;4899692;29;20461;-87
2023/06/28 09:20:56;;;;;;;6.97;3.33;;;;;;;21.42;80.56;101737.84;4899699;29;20020;-90
2023/06/28 09:23:29;;;;;;;7.30;3.88;;;;;;;21.74;79.40;101728.63;4896661;29;20032;-88
2023/06/28 09:25:56;;;;;;;8.00;3.50;;;;;;;21.91;77.08;101725.16;4885754;29;20029;-88
2023/06/28 09:28:33;;;;;;;6.93;3.38;;;;;;;21.98;76.30;101732.09;4897736;29;20029;-88
2023/06/28 09:30:58;;;;;;;10.48;3.88;;;;;;;21.99;74.37;101728.25;4880909;29;20489;-88
2023/06/28 09:33:24;;;;;;;14.03;3.60;;;;;;;21.97;73.68;101731.31;4892899;29;20059;-87
2023/06/28 09:35:54;;;;;;;7.87;3.70;;;;;;;21.83;71.89;101728.66;4898715;29;20096;-88
2023/06/28 09:38:20;;;;;;;8.10;3.30;;;;;;;21.76;72.65;101729.13;4898911;29;20033;-88
2023/06/28 09:40:53;;;;;;;8.02;3.47;;;;;;;21.84;74.27;101740.38;4895851;29;20027;-88
2023/06/28 09:43:18;;;;;;;8.90;3.38;;;;;;;21.77;72.77;101732.63;4898643;29;20033;-88
2023/06/28 09:45:43;;;;;;;7.83;3.70;;;;;;;21.66;74.77;101736.75;4897711;29;20088;-87
2023/06/28 09:48:09;;;;;;;8.13;3.27;;;;;;;21.78;74.41;101726.06;4896836;29;20075;-89
2023/06/28 09:50:45;;;;;;;8.02;3.35;;;;;;;21.81;75.09;101732.84;4898400;29;20032;-88
2023/06/28 09:53:19;;;;;;;8.03;2.97;;;;;;;22.17;74.95;101729.94;4898422;29;20512;-89
2023/06/28 09:55:45;;;;;;;7.50;3.67;;;;;;;22.60;73.07;101724.97;4897841;29;20284;-89
2023/06/28 09:58:13;;;;;;;7.95;3.00;;;;;;;22.86;69.76;101735.13;5101606;23;20036;-90
2023/06/28 10:00:40;;;;;;;7.55;3.17;;;;;;;22.79;66.43;101721.94;4917224;29;20058;-89
2023/06/28 10:03:07;;;;;;;9.05;3.25;;;;;;;23.09;68.19;101720.19;4923380;23;20107;-90
2023/06/28 10:05:42;;;;;;;9.88;3.17;;;;;;;23.17;65.87;101704.13;4917068;29;20092;-88
2023/06/28 10:08:14;;;;;;;8.85;3.20;;;;;;;23.52;65.13;101721.28;4916975;29;20028;-89
2023/06/28 10:10:41;;;;;;;6.85;3.25;;;;;;;23.73;63.79;101713.22;4916765;29;20563;-88
2023/06/28 10:13:10;;;;;;;7.10;3.00;;;;;;;24.03;61.93;101709.72;4926090;29;20385;-89
2023/06/28 10:16:06;;;;;;;9.75;3.28;;;;;;;24.30;60.11;101724.88;4926981;29;20050;-89
2023/06/28 10:18:32;;;;;;;8.77;3.10;;;;;;;24.42;59.99;101723.41;4925965;29;20024;-91
2023/06/28 10:20:59;;;;;;;9.40;3.13;;;;;;;24.84;58.64;101717.19;4920230;29;20324;-93
2023/06/28 10:23:26;;;;;;;5.72;2.63;;;;;;;25.35;56.37;101717.84;4919903;29;20508;-90
2023/06/28 10:25:54;;;;;;;10.23;3.03;;;;;;;25.23;54.66;101713.13;4917605;29;20036;-92
2023/06/28 10:28:21;;;;;;;9.07;3.53;;;;;;;25.55;54.89;101709.94;4916220;29;20296;-90
2023/06/28 10:30:47;;;;;;;7.15;3.00;;;;;;;26.08;54.00;101703.81;4917255;29;20099;-90
2023/06/28 10:33:15;;;;;;;9.75;3.10;;;;;;;26.52;52.54;101714.22;4916679;29;20446;-89
2023/06/28 10:35:43;;;;;;;10.75;3.38;;;;;;;26.75;52.29;101712.56;4915119;29;20036;-91
2023/06/28 10:38:09;;;;;;;10.40;3.20;;;;;;;26.22;49.87;101717.25;4917577;29;20020;-93
2023/06/28 10:40:35;;;;;;;8.23;3.38;;;;;;;25.81;50.63;101706.91;4914642;29;20357;-89
2023/06/28 10:49:42;;;;;;;5.82;3.10;;;;;;;26.41;48.74;101673.50;4931838;29;20095;-88
2023/06/28 10:52:57;;;;;;;10.32;3.22;;;;;;;26.52;51.12;101715.03;4909483;29;20051;-88
2023/06/28 10:56:29;;;;;;;6.88;2.80;;;;;;;26.15;52.33;101685.66;4980089;23;20039;-88
2023/06/28 10:59:14;;;;;;;6.47;3.30;;;;;;;26.29;50.61;101692.75;4823130;29;20763;-90
2023/06/28 11:02:05;;;;;;;4.73;2.80;;;;;;;26.72;50.43;101705.03;4894922;23;20529;-89
2023/06/28 11:05:27;;;;;;;6.80;2.70;;;;;;;26.77;48.92;101698.47;4887654;29;20296;-89
2023/06/28 11:19:14;;;;;;;6.05;2.60;;;;;;;27.53;47.34;101688.78;4828731;29;20121;-88
2023/06/28 11:28:04;;;;;;;6.57;3.10;;;;;;;27.58;45.70;101656.28;4911437;29;20082;-87
2023/06/28 11:30:51;;;;;;;11.95;3.58;;;;;;;27.67;46.22;101689.13;4906727;29;20040;-87
2023/06/28 11:36:51;;;;;;;9.17;3.10;;;;;;;27.83;45.18;101683.63;4836833;29;20647;-87
2023/06/28 11:39:25;;;;;;;8.23;3.67;;;;;;;28.04;45.83;101668.78;4805482;29;20046;-87
2023/06/28 11:42:21;;;;;;;7.00;3.33;;;;;;;28.17;45.97;101653.75;4881103;29;20210;-88
2023/06/28 11:44:51;;;;;;;8.45;4.43;;;;;;;28.53;43.42;101673.81;4893156;29;20461;-88
2023/06/28 11:47:42;;;;;;;10.32;4.28;;;;;;;28.77;44.44;101671.19;4895455;29;20115;-87
2023/06/28 11:50:22;;;;;;;8.52;4.50;;;;;;;28.59;43.68;101668.81;4895164;29;20370;-87
2023/06/28 11:52:47;;;;;;;12.90;4.57;;;;;;;28.83;42.87;101664.22;4896048;29;20036;-87
2023/06/28 11:55:15;;;;;;;7.85;4.30;;;;;;;29.16;42.68;101666.44;4896282;29;20434;-87
2023/06/28 11:57:56;;;;;;;7.60;4.03;;;;;;;29.33;42.05;101678.16;4894524;29;20029;-87
2023/06/28 12:00:22;;;;;;;11.93;4.60;;;;;;;28.92;43.16;101658.47;4895761;29;20324;-87
2023/06/28 12:02:57;;;;;;;7.68;4.05;;;;;;;28.97;43.01;101647.94;4895902;29;20512;-87
2023/06/28 12:05:22;;;;;;;11.55;4.95;;;;;;;28.61;43.00;101649.19;4896154;29;20044;-87